Avon, Mississippi
Current Conditions -  °F | °C
As of 12:53 AM on Sunday 23 Nov 2014 (Local Time) from KGLH Reporting Station
Few Clouds Few Clouds  
Wind Chill: 57°   Ceiling: Unl
Heat Index: 57°   Visibility: 10mi
Dew Point: 52°   Wind: 9mph
Humidity: 83%   Direction: 130°SE
Pressure: 29.86"   Gusts: NA
Location:  33.23°N, 91.05°W
Report Text: KGLH 230653Z AUTO 13008KT 10SM FEW110 14/11 A2986 RMK AO2 SLP117 T01390111
Loading
Personal Weather Stations






























Interactive Weather Map New forecast layout! Learn more

10-Day Weather Forecast

Advertisements
Track Severe Weather on mobile